Endeavour — C6BE4 — position and weather

sailwx.info

Track history (hours):
 
Tides and Currents Weather Stations Pressure Air Temp Water Temp Dewpoint Dewpoint Depression Visibility Wind Speed Wind Dir Waves Ship Positions

Endeavour

Operator: Lindblad Expeditions

Last reported at 2019-Jun-15 23:50 UTC. Time now 2019-Jun-17 18:55 UTC.
Position N 37°34' E 008°20'.

Length 190 m; draft 11.7 m.

Type: Cargo ship. MMSI: 311000239.

Date/timePositionNaut miles runAvg speedWind from/ knotsBaromVisibWave heightAir tempDewpointWater temp
2019-Jun-15 23:50N 37°34' E 008°20'12913.6
2019-Jun-15 14:22N 37°20' E 005°39'613.1
2019-Jun-15 13:56N 37°19' E 005°32'612.9
2019-Jun-15 13:30N 37°18' E 005°25'5013.0
2019-Jun-15 09:38N 37°12' E 004°22'513.2
2019-Jun-15 09:15N 37°12' E 004°16'313.3
2019-Jun-15 09:00N 37°11' E 004°12'813.3
2019-Jun-15 08:26N 37°11' E 004°03'613.5
2019-Jun-15 08:00N 37°10' E 003°55'713.9
2019-Jun-15 07:29N 37°09' E 003°46'3714.1
2019-Jun-15 04:50N 37°05' E 002°60'1513.9
2019-Jun-15 03:44N 37°03' E 002°41'813.8
2019-Jun-15 03:09N 37°02' E 002°31'213.7
2019-Jun-15 03:01N 37°02' E 002°28'713.6
2019-Jun-15 02:30N 37°02' E 002°20'1013.6
2019-Jun-15 01:47N 37°01' E 002°08'  
2019-Jun-09 18:42N 36°49' W 007°48'211.9
2019-Jun-09 18:30N 36°47' W 007°51'3 5.2
2019-Jun-09 18:00N 36°49' W 007°53'815.2
2019-Jun-09 17:30N 36°47' W 008°02'815.1
2019-Jun-09 17:00N 36°44' W 008°10'815.1
2019-Jun-09 16:30N 36°41' W 008°19'814.9
2019-Jun-09 16:00N 36°36' W 008°27'714.6
2019-Jun-09 15:30N 36°32' W 008°34'1714.0
2019-Jun-09 14:18N 36°29' W 008°55'415.1
2019-Jun-09 14:00N 36°29' W 009°00'1115.1
2019-Jun-09 13:17N 36°33' W 009°13'2015.1
2019-Jun-09 11:58N 36°46' W 009°31'4514.6
2019-Jun-09 08:52N 37°30' W 009°48'3514.9
2019-Jun-09 06:30N 38°02' W 010°03'815.1
2019-Jun-09 06:00N 38°10' W 010°06'714.9
2019-Jun-09 05:30N 38°17' W 010°10'814.9
2019-Jun-09 05:00N 38°24' W 010°13'1514.8
2019-Jun-09 04:00N 38°38' W 010°19'815.0
2019-Jun-09 03:30N 38°45' W 010°22'714.9
2019-Jun-09 03:00N 38°52' W 010°25'1414.9
2019-Jun-09 02:03N 39°05' W 010°31'2015.2
2019-Jun-09 00:43N 39°25' W 010°39'61413.7
2019-Jun-07 03:55N 48°59' W 005°35'712.9
2019-Jun-07 03:21N 49°03' W 005°26'1010.2
2019-Jun-07 02:25N 49°08' W 005°14'2914.5
2019-Jun-07 00:27N 49°23' W 004°36'1016.3
2019-Jun-06 23:50N 49°28' W 004°23'515.8
2019-Jun-06 23:30N 49°30' W 004°16'815.4
2019-Jun-06 23:01N 49°34' W 004°06'714.8
2019-Jun-06 22:30N 49°38' W 003°56'714.2
2019-Jun-06 22:01N 49°42' W 003°47'713.7
2019-Jun-06 21:30N 49°45' W 003°37'713.3
2019-Jun-06 21:00N 49°48' W 003°28'713.2
2019-Jun-06 20:30N 49°52' W 003°19'713.2
2019-Jun-06 20:00N 49°55' W 003°11'713.5
2019-Jun-06 19:30N 49°58' W 003°01'714.0
2019-Jun-06 19:01N 49°60' W 002°51'714.6
2019-Jun-06 18:31N 50°01' W 002°40'815.4
2019-Jun-06 18:01N 50°03' W 002°28'816.3
2019-Jun-06 17:31N 50°06' W 002°16'917.3
2019-Jun-06 17:01N 50°08' W 002°03'918.2
2019-Jun-06 16:30N 50°11' W 001°49'918.4
2019-Jun-06 16:00N 50°13' W 001°36'918.3
2019-Jun-06 15:30N 50°16' W 001°22'1018.1
2019-Jun-06 14:57N 50°18' W 001°06'817.2
2019-Jun-06 14:30N 50°20' W 000°55'815.9
2019-Jun-06 14:01N 50°22' W 000°43'815.3
2019-Jun-06 13:30N 50°24' W 000°31'714.7
2019-Jun-06 13:01N 50°27' W 000°21'714.0
2019-Jun-06 12:30N 50°28' W 000°10'713.2
2019-Jun-06 12:00N 50°29' E 000°01'612.8
2019-Jun-06 11:31N 50°31' E 000°10'1312.1
2019-Jun-06 10:23N 50°36' E 000°30'612.4
2019-Jun-06 09:52N 50°38' E 000°39'513.3
2019-Jun-06 09:29N 50°41' E 000°46'714.1
2019-Jun-06 09:00N 50°45' E 000°55'815.3
2019-Jun-06 08:30N 50°49' E 001°05'815.8
2019-Jun-06 08:00N 50°53' E 001°15'816.3
2019-Jun-06 07:31N 50°59' E 001°24'714.6
2019-Jun-06 07:00N 51°05' E 001°32'612.3
2019-Jun-06 06:30N 51°09' E 001°39'611.7
2019-Jun-06 06:00N 51°13' E 001°45'611.2
2019-Jun-06 05:30N 51°18' E 001°49'612.2
2019-Jun-06 05:00N 51°24' E 001°54'612.4
2019-Jun-06 04:30N 51°28' E 001°60'612.4
2019-Jun-06 04:00N 51°33' E 002°06'612.4
2019-Jun-06 03:30N 51°38' E 002°13'612.4
2019-Jun-06 03:00N 51°42' E 002°20'612.3
2019-Jun-06 02:30N 51°47' E 002°27'712.6
2019-Jun-06 01:59N 51°52' E 002°34'913.3
2019-Jun-06 01:20N 51°58' E 002°44'613.6
2019-Jun-06 00:55N 52°01' E 002°51'613.9
2019-Jun-06 00:30N 52°02' E 003°00'714.4
2019-Jun-06 00:00N 52°02' E 003°12'  
Track history (hours):
 
Tides and Currents Weather Stations Pressure Air Temp Water Temp Dewpoint Dewpoint Depression Visibility Wind Speed Wind Dir Waves Ship Positions

Endeavour

Operator: Lindblad Expeditions

Last reported at 2019-Jun-15 23:50 UTC. Time now 2019-Jun-17 18:55 UTC.
Position N 37°34' E 008°20'.

Length 190 m; draft 11.7 m.

Type: Cargo ship. MMSI: 311000239.

Date/timePositionNaut miles runAvg speedWind from/ knotsBaromVisibWave heightAir tempDewpointWater temp
2019-Jun-15 23:50N 37°34' E 008°20'12913.6
2019-Jun-15 14:22N 37°20' E 005°39'613.1
2019-Jun-15 13:56N 37°19' E 005°32'612.9
2019-Jun-15 13:30N 37°18' E 005°25'5013.0
2019-Jun-15 09:38N 37°12' E 004°22'513.2
2019-Jun-15 09:15N 37°12' E 004°16'313.3
2019-Jun-15 09:00N 37°11' E 004°12'813.3
2019-Jun-15 08:26N 37°11' E 004°03'613.5
2019-Jun-15 08:00N 37°10' E 003°55'713.9
2019-Jun-15 07:29N 37°09' E 003°46'3714.1
2019-Jun-15 04:50N 37°05' E 002°60'1513.9
2019-Jun-15 03:44N 37°03' E 002°41'813.8
2019-Jun-15 03:09N 37°02' E 002°31'213.7
2019-Jun-15 03:01N 37°02' E 002°28'713.6
2019-Jun-15 02:30N 37°02' E 002°20'1013.6
2019-Jun-15 01:47N 37°01' E 002°08'  
2019-Jun-09 18:42N 36°49' W 007°48'211.9
2019-Jun-09 18:30N 36°47' W 007°51'3 5.2
2019-Jun-09 18:00N 36°49' W 007°53'815.2
2019-Jun-09 17:30N 36°47' W 008°02'815.1
2019-Jun-09 17:00N 36°44' W 008°10'815.1
2019-Jun-09 16:30N 36°41' W 008°19'814.9
2019-Jun-09 16:00N 36°36' W 008°27'714.6
2019-Jun-09 15:30N 36°32' W 008°34'1714.0
2019-Jun-09 14:18N 36°29' W 008°55'415.1
2019-Jun-09 14:00N 36°29' W 009°00'1115.1
2019-Jun-09 13:17N 36°33' W 009°13'2015.1
2019-Jun-09 11:58N 36°46' W 009°31'4514.6
2019-Jun-09 08:52N 37°30' W 009°48'3514.9
2019-Jun-09 06:30N 38°02' W 010°03'815.1
2019-Jun-09 06:00N 38°10' W 010°06'714.9
2019-Jun-09 05:30N 38°17' W 010°10'814.9
2019-Jun-09 05:00N 38°24' W 010°13'1514.8
2019-Jun-09 04:00N 38°38' W 010°19'815.0
2019-Jun-09 03:30N 38°45' W 010°22'714.9
2019-Jun-09 03:00N 38°52' W 010°25'1414.9
2019-Jun-09 02:03N 39°05' W 010°31'2015.2
2019-Jun-09 00:43N 39°25' W 010°39'61413.7
2019-Jun-07 03:55N 48°59' W 005°35'712.9
2019-Jun-07 03:21N 49°03' W 005°26'1010.2
2019-Jun-07 02:25N 49°08' W 005°14'2914.5
2019-Jun-07 00:27N 49°23' W 004°36'1016.3
2019-Jun-06 23:50N 49°28' W 004°23'515.8
2019-Jun-06 23:30N 49°30' W 004°16'815.4
2019-Jun-06 23:01N 49°34' W 004°06'714.8
2019-Jun-06 22:30N 49°38' W 003°56'714.2
2019-Jun-06 22:01N 49°42' W 003°47'713.7
2019-Jun-06 21:30N 49°45' W 003°37'713.3
2019-Jun-06 21:00N 49°48' W 003°28'713.2
2019-Jun-06 20:30N 49°52' W 003°19'713.2
2019-Jun-06 20:00N 49°55' W 003°11'713.5
2019-Jun-06 19:30N 49°58' W 003°01'714.0
2019-Jun-06 19:01N 49°60' W 002°51'714.6
2019-Jun-06 18:31N 50°01' W 002°40'815.4
2019-Jun-06 18:01N 50°03' W 002°28'816.3
2019-Jun-06 17:31N 50°06' W 002°16'917.3
2019-Jun-06 17:01N 50°08' W 002°03'918.2
2019-Jun-06 16:30N 50°11' W 001°49'918.4
2019-Jun-06 16:00N 50°13' W 001°36'918.3
2019-Jun-06 15:30N 50°16' W 001°22'1018.1
2019-Jun-06 14:57N 50°18' W 001°06'817.2
2019-Jun-06 14:30N 50°20' W 000°55'815.9
2019-Jun-06 14:01N 50°22' W 000°43'815.3
2019-Jun-06 13:30N 50°24' W 000°31'714.7
2019-Jun-06 13:01N 50°27' W 000°21'714.0
2019-Jun-06 12:30N 50°28' W 000°10'713.2
2019-Jun-06 12:00N 50°29' E 000°01'612.8
2019-Jun-06 11:31N 50°31' E 000°10'1312.1
2019-Jun-06 10:23N 50°36' E 000°30'612.4
2019-Jun-06 09:52N 50°38' E 000°39'513.3
2019-Jun-06 09:29N 50°41' E 000°46'714.1
2019-Jun-06 09:00N 50°45' E 000°55'815.3
2019-Jun-06 08:30N 50°49' E 001°05'815.8
2019-Jun-06 08:00N 50°53' E 001°15'816.3
2019-Jun-06 07:31N 50°59' E 001°24'714.6
2019-Jun-06 07:00N 51°05' E 001°32'612.3
2019-Jun-06 06:30N 51°09' E 001°39'611.7
2019-Jun-06 06:00N 51°13' E 001°45'611.2
2019-Jun-06 05:30N 51°18' E 001°49'612.2
2019-Jun-06 05:00N 51°24' E 001°54'612.4
2019-Jun-06 04:30N 51°28' E 001°60'612.4
2019-Jun-06 04:00N 51°33' E 002°06'612.4
2019-Jun-06 03:30N 51°38' E 002°13'612.4
2019-Jun-06 03:00N 51°42' E 002°20'612.3
2019-Jun-06 02:30N 51°47' E 002°27'712.6
2019-Jun-06 01:59N 51°52' E 002°34'913.3
2019-Jun-06 01:20N 51°58' E 002°44'613.6
2019-Jun-06 00:55N 52°01' E 002°51'613.9
2019-Jun-06 00:30N 52°02' E 003°00'714.4
2019-Jun-06 00:00N 52°02' E 003°12'  

Dump ship's entire track history